sensor_id;sensor_type;location;lat;lon;timestamp;P1;durP1;ratioP1;P2;durP2;ratioP2
54143;SDS011;40050;47.324;18.792;2022-11-15T00:01:01;48.17;;;21.77;;
54143;SDS011;40050;47.324;18.792;2022-11-15T00:03:02;49.14;;;24.10;;
54143;SDS011;40050;47.324;18.792;2022-11-15T00:05:03;51.78;;;23.13;;
54143;SDS011;40050;47.324;18.792;2022-11-15T00:07:03;56.26;;;22.74;;
54143;SDS011;40050;47.324;18.792;2022-11-15T00:09:04;45.32;;;23.20;;
54143;SDS011;40050;47.324;18.792;2022-11-15T00:11:05;49.96;;;22.62;;
54143;SDS011;40050;47.324;18.792;2022-11-15T00:13:07;52.42;;;22.16;;
54143;SDS011;40050;47.324;18.792;2022-11-15T00:15:07;48.46;;;22.00;;
54143;SDS011;40050;47.324;18.792;2022-11-15T00:17:08;41.79;;;21.84;;
54143;SDS011;40050;47.324;18.792;2022-11-15T00:19:09;45.13;;;22.12;;
54143;SDS011;40050;47.324;18.792;2022-11-15T00:21:11;38.68;;;21.34;;
54143;SDS011;40050;47.324;18.792;2022-11-15T00:23:11;38.93;;;21.89;;
54143;SDS011;40050;47.324;18.792;2022-11-15T00:25:12;40.85;;;21.88;;
54143;SDS011;40050;47.324;18.792;2022-11-15T00:27:13;41.94;;;20.94;;
54143;SDS011;40050;47.324;18.792;2022-11-15T00:29:13;42.46;;;22.67;;
54143;SDS011;40050;47.324;18.792;2022-11-15T00:31:14;43.75;;;22.28;;
54143;SDS011;40050;47.324;18.792;2022-11-15T00:33:15;46.49;;;23.01;;
54143;SDS011;40050;47.324;18.792;2022-11-15T00:35:16;44.51;;;23.01;;
54143;SDS011;40050;47.324;18.792;2022-11-15T00:37:20;47.51;;;23.11;;
54143;SDS011;40050;47.324;18.792;2022-11-15T00:39:21;41.08;;;22.35;;
54143;SDS011;40050;47.324;18.792;2022-11-15T00:41:22;48.02;;;22.05;;
54143;SDS011;40050;47.324;18.792;2022-11-15T00:43:23;45.82;;;22.52;;
54143;SDS011;40050;47.324;18.792;2022-11-15T00:45:24;47.31;;;22.25;;
54143;SDS011;40050;47.324;18.792;2022-11-15T00:47:24;45.22;;;23.59;;
54143;SDS011;40050;47.324;18.792;2022-11-15T00:49:25;46.97;;;22.74;;
54143;SDS011;40050;47.324;18.792;2022-11-15T00:51:26;43.81;;;22.74;;
54143;SDS011;40050;47.324;18.792;2022-11-15T00:53:27;44.49;;;23.20;;
54143;SDS011;40050;47.324;18.792;2022-11-15T00:55:28;47.61;;;23.47;;
54143;SDS011;40050;47.324;18.792;2022-11-15T00:57:29;51.97;;;24.51;;
54143;SDS011;40050;47.324;18.792;2022-11-15T00:59:30;52.98;;;23.40;;
54143;SDS011;40050;47.324;18.792;2022-11-15T01:01:48;44.56;;;22.93;;
54143;SDS011;40050;47.324;18.792;2022-11-15T01:03:49;49.23;;;24.80;;
54143;SDS011;40050;47.324;18.792;2022-11-15T01:05:50;45.72;;;24.04;;
54143;SDS011;40050;47.324;18.792;2022-11-15T01:07:54;51.30;;;24.88;;
54143;SDS011;40050;47.324;18.792;2022-11-15T01:09:52;51.44;;;25.16;;
54143;SDS011;40050;47.324;18.792;2022-11-15T01:11:53;50.29;;;24.22;;
54143;SDS011;40050;47.324;18.792;2022-11-15T01:13:54;45.01;;;24.24;;
54143;SDS011;40050;47.324;18.792;2022-11-15T01:15:54;47.08;;;24.52;;
54143;SDS011;40050;47.324;18.792;2022-11-15T01:17:55;47.73;;;24.70;;
54143;SDS011;40050;47.324;18.792;2022-11-15T01:19:56;50.22;;;25.17;;
54143;SDS011;40050;47.324;18.792;2022-11-15T01:21:57;46.75;;;25.56;;
54143;SDS011;40050;47.324;18.792;2022-11-15T01:23:57;46.32;;;24.80;;
54143;SDS011;40050;47.324;18.792;2022-11-15T01:26:02;48.93;;;24.90;;
54143;SDS011;40050;47.324;18.792;2022-11-15T01:27:59;44.79;;;25.12;;
54143;SDS011;40050;47.324;18.792;2022-11-15T01:30:00;48.01;;;25.13;;
54143;SDS011;40050;47.324;18.792;2022-11-15T01:32:01;48.01;;;25.13;;
54143;SDS011;40050;47.324;18.792;2022-11-15T01:34:04;46.89;;;24.58;;
54143;SDS011;40050;47.324;18.792;2022-11-15T01:36:13;46.22;;;24.98;;
54143;SDS011;40050;47.324;18.792;2022-11-15T01:38:09;47.44;;;25.44;;
54143;SDS011;40050;47.324;18.792;2022-11-15T01:40:10;47.11;;;26.37;;
54143;SDS011;40050;47.324;18.792;2022-11-15T01:42:13;51.99;;;26.44;;
54143;SDS011;40050;47.324;18.792;2022-11-15T01:46:27;53.57;;;27.20;;
54143;SDS011;40050;47.324;18.792;2022-11-15T01:48:16;51.44;;;26.19;;
54143;SDS011;40050;47.324;18.792;2022-11-15T01:50:27;47.06;;;25.83;;
54143;SDS011;40050;47.324;18.792;2022-11-15T01:52:28;54.41;;;25.91;;
54143;SDS011;40050;47.324;18.792;2022-11-15T01:54:31;50.32;;;25.83;;
54143;SDS011;40050;47.324;18.792;2022-11-15T01:56:38;50.50;;;24.41;;
54143;SDS011;40050;47.324;18.792;2022-11-15T01:58:38;51.78;;;26.12;;
54143;SDS011;40050;47.324;18.792;2022-11-15T02:00:40;58.72;;;26.68;;
54143;SDS011;40050;47.324;18.792;2022-11-15T02:02:40;52.77;;;26.19;;
54143;SDS011;40050;47.324;18.792;2022-11-15T02:04:46;58.73;;;25.72;;
54143;SDS011;40050;47.324;18.792;2022-11-15T02:06:47;55.28;;;26.30;;
54143;SDS011;40050;47.324;18.792;2022-11-15T02:08:48;57.29;;;27.07;;
54143;SDS011;40050;47.324;18.792;2022-11-15T02:10:50;51.36;;;26.05;;
54143;SDS011;40050;47.324;18.792;2022-11-15T02:12:51;50.35;;;26.59;;
54143;SDS011;40050;47.324;18.792;2022-11-15T02:14:54;59.87;;;26.86;;
54143;SDS011;40050;47.324;18.792;2022-11-15T02:28:42;48.01;;;25.93;;
54143;SDS011;40050;47.324;18.792;2022-11-15T02:30:43;55.19;;;26.24;;
54143;SDS011;40050;47.324;18.792;2022-11-15T02:34:56;48.90;;;26.44;;
54143;SDS011;40050;47.324;18.792;2022-11-15T02:37:17;48.62;;;25.70;;
54143;SDS011;40050;47.324;18.792;2022-11-15T02:39:41;51.29;;;26.26;;
54143;SDS011;40050;47.324;18.792;2022-11-15T02:41:43;48.61;;;25.50;;
54143;SDS011;40050;47.324;18.792;2022-11-15T02:43:46;49.49;;;25.72;;
54143;SDS011;40050;47.324;18.792;2022-11-15T02:45:55;46.56;;;24.78;;
54143;SDS011;40050;47.324;18.792;2022-11-15T02:47:56;47.66;;;24.57;;
54143;SDS011;40050;47.324;18.792;2022-11-15T02:50:00;42.07;;;23.72;;
54143;SDS011;40050;47.324;18.792;2022-11-15T02:51:59;44.91;;;23.80;;
54143;SDS011;40050;47.324;18.792;2022-11-15T02:54:00;48.45;;;24.65;;
54143;SDS011;40050;47.324;18.792;2022-11-15T02:56:07;42.60;;;23.98;;
54143;SDS011;40050;47.324;18.792;2022-11-15T03:00:41;46.76;;;24.84;;
54143;SDS011;40050;47.324;18.792;2022-11-15T03:07:32;49.43;;;25.59;;
54143;SDS011;40050;47.324;18.792;2022-11-15T03:09:35;46.08;;;24.29;;
54143;SDS011;40050;47.324;18.792;2022-11-15T03:11:41;52.33;;;26.57;;
54143;SDS011;40050;47.324;18.792;2022-11-15T03:14:02;48.75;;;24.68;;
54143;SDS011;40050;47.324;18.792;2022-11-15T03:16:01;49.73;;;25.82;;
54143;SDS011;40050;47.324;18.792;2022-11-15T03:18:00;48.57;;;26.20;;
54143;SDS011;40050;47.324;18.792;2022-11-15T03:20:15;47.16;;;24.57;;
54143;SDS011;40050;47.324;18.792;2022-11-15T03:22:18;50.82;;;25.79;;
54143;SDS011;40050;47.324;18.792;2022-11-15T03:24:19;51.12;;;25.50;;
54143;SDS011;40050;47.324;18.792;2022-11-15T03:26:21;52.01;;;25.49;;
54143;SDS011;40050;47.324;18.792;2022-11-15T03:28:24;53.67;;;26.05;;
54143;SDS011;40050;47.324;18.792;2022-11-15T03:30:28;53.46;;;26.61;;
54143;SDS011;40050;47.324;18.792;2022-11-15T03:32:34;53.53;;;25.94;;
54143;SDS011;40050;47.324;18.792;2022-11-15T03:34:44;50.73;;;25.09;;
54143;SDS011;40050;47.324;18.792;2022-11-15T03:36:37;53.36;;;26.32;;
54143;SDS011;40050;47.324;18.792;2022-11-15T03:38:52;54.64;;;27.09;;
54143;SDS011;40050;47.324;18.792;2022-11-15T03:40:58;54.61;;;26.79;;
54143;SDS011;40050;47.324;18.792;2022-11-15T03:43:14;55.86;;;26.41;;
54143;SDS011;40050;47.324;18.792;2022-11-15T03:45:24;51.59;;;25.94;;
54143;SDS011;40050;47.324;18.792;2022-11-15T03:47:24;52.11;;;25.97;;
54143;SDS011;40050;47.324;18.792;2022-11-15T03:49:27;56.98;;;25.79;;
54143;SDS011;40050;47.324;18.792;2022-11-15T03:51:26;57.08;;;27.58;;
54143;SDS011;40050;47.324;18.792;2022-11-15T03:53:27;54.74;;;26.24;;
54143;SDS011;40050;47.324;18.792;2022-11-15T03:55:27;52.50;;;26.34;;
54143;SDS011;40050;47.324;18.792;2022-11-15T03:57:28;54.11;;;26.65;;
54143;SDS011;40050;47.324;18.792;2022-11-15T03:59:29;59.07;;;27.85;;
54143;SDS011;40050;47.324;18.792;2022-11-15T04:01:30;58.85;;;27.09;;
54143;SDS011;40050;47.324;18.792;2022-11-15T04:03:31;57.75;;;28.50;;
54143;SDS011;40050;47.324;18.792;2022-11-15T04:05:32;58.14;;;26.60;;
54143;SDS011;40050;47.324;18.792;2022-11-15T04:07:32;52.85;;;27.34;;
54143;SDS011;40050;47.324;18.792;2022-11-15T04:09:33;57.19;;;27.50;;
54143;SDS011;40050;47.324;18.792;2022-11-15T04:11:34;59.25;;;27.59;;
54143;SDS011;40050;47.324;18.792;2022-11-15T04:13:35;57.98;;;27.49;;
54143;SDS011;40050;47.324;18.792;2022-11-15T04:15:37;56.59;;;27.48;;
54143;SDS011;40050;47.324;18.792;2022-11-15T04:17:42;58.29;;;27.58;;
54143;SDS011;40050;47.324;18.792;2022-11-15T04:19:39;54.84;;;26.63;;
54143;SDS011;40050;47.324;18.792;2022-11-15T04:21:40;56.11;;;27.58;;
54143;SDS011;40050;47.324;18.792;2022-11-15T04:23:42;54.82;;;27.10;;
54143;SDS011;40050;47.324;18.792;2022-11-15T04:25:43;61.59;;;27.59;;
54143;SDS011;40050;47.324;18.792;2022-11-15T04:27:44;57.48;;;26.76;;
54143;SDS011;40050;47.324;18.792;2022-11-15T04:29:45;56.96;;;27.13;;
54143;SDS011;40050;47.324;18.792;2022-11-15T04:31:45;56.11;;;26.94;;
54143;SDS011;40050;47.324;18.792;2022-11-15T04:33:46;58.42;;;26.93;;
54143;SDS011;40050;47.324;18.792;2022-11-15T04:35:47;57.20;;;27.60;;
54143;SDS011;40050;47.324;18.792;2022-11-15T04:37:48;57.19;;;27.50;;
54143;SDS011;40050;47.324;18.792;2022-11-15T04:39:49;58.68;;;27.50;;
54143;SDS011;40050;47.324;18.792;2022-11-15T04:41:49;54.31;;;26.17;;
54143;SDS011;40050;47.324;18.792;2022-11-15T04:43:50;53.93;;;26.47;;
54143;SDS011;40050;47.324;18.792;2022-11-15T04:45:51;52.16;;;25.71;;
54143;SDS011;40050;47.324;18.792;2022-11-15T04:47:52;54.95;;;27.15;;
54143;SDS011;40050;47.324;18.792;2022-11-15T04:49:53;53.45;;;25.66;;
54143;SDS011;40050;47.324;18.792;2022-11-15T04:51:54;58.58;;;26.32;;
54143;SDS011;40050;47.324;18.792;2022-11-15T04:53:55;57.74;;;27.18;;
54143;SDS011;40050;47.324;18.792;2022-11-15T04:55:55;56.21;;;26.13;;
54143;SDS011;40050;47.324;18.792;2022-11-15T04:57:57;57.55;;;26.60;;
54143;SDS011;40050;47.324;18.792;2022-11-15T04:59:57;55.29;;;26.32;;
54143;SDS011;40050;47.324;18.792;2022-11-15T05:01:58;52.84;;;26.04;;
54143;SDS011;40050;47.324;18.792;2022-11-15T05:03:58;54.02;;;26.98;;
54143;SDS011;40050;47.324;18.792;2022-11-15T05:05:59;54.00;;;25.77;;
54143;SDS011;40050;47.324;18.792;2022-11-15T05:08:00;57.28;;;26.73;;
54143;SDS011;40050;47.324;18.792;2022-11-15T05:10:01;55.60;;;27.89;;
54143;SDS011;40050;47.324;18.792;2022-11-15T05:12:05;58.20;;;27.70;;
54143;SDS011;40050;47.324;18.792;2022-11-15T05:14:06;56.58;;;27.67;;
54143;SDS011;40050;47.324;18.792;2022-11-15T05:16:06;55.31;;;27.94;;
54143;SDS011;40050;47.324;18.792;2022-11-15T05:18:10;55.78;;;27.24;;
54143;SDS011;40050;47.324;18.792;2022-11-15T05:20:08;56.18;;;26.48;;
54143;SDS011;40050;47.324;18.792;2022-11-15T05:22:11;53.97;;;26.19;;
54143;SDS011;40050;47.324;18.792;2022-11-15T05:24:12;54.12;;;26.59;;
54143;SDS011;40050;47.324;18.792;2022-11-15T05:26:16;58.31;;;27.27;;
54143;SDS011;40050;47.324;18.792;2022-11-15T05:28:14;53.47;;;25.46;;
54143;SDS011;40050;47.324;18.792;2022-11-15T05:30:15;50.80;;;25.06;;
54143;SDS011;40050;47.324;18.792;2022-11-15T05:32:15;49.63;;;25.52;;
54143;SDS011;40050;47.324;18.792;2022-11-15T05:34:16;44.50;;;24.19;;
54143;SDS011;40050;47.324;18.792;2022-11-15T05:36:29;46.88;;;24.76;;
54143;SDS011;40050;47.324;18.792;2022-11-15T05:38:20;43.84;;;23.93;;
54143;SDS011;40050;47.324;18.792;2022-11-15T05:40:21;41.58;;;22.44;;
54143;SDS011;40050;47.324;18.792;2022-11-15T05:42:34;41.20;;;22.12;;
54143;SDS011;40050;47.324;18.792;2022-11-15T05:44:37;39.88;;;21.71;;
54143;SDS011;40050;47.324;18.792;2022-11-15T05:46:38;40.09;;;21.96;;
54143;SDS011;40050;47.324;18.792;2022-11-15T05:48:41;40.67;;;21.84;;
54143;SDS011;40050;47.324;18.792;2022-11-15T05:50:46;39.37;;;21.26;;
54143;SDS011;40050;47.324;18.792;2022-11-15T05:52:50;40.98;;;22.28;;
54143;SDS011;40050;47.324;18.792;2022-11-15T05:54:52;44.98;;;23.56;;
54143;SDS011;40050;47.324;18.792;2022-11-15T05:56:53;40.45;;;21.31;;
54143;SDS011;40050;47.324;18.792;2022-11-15T05:58:54;40.83;;;20.71;;
54143;SDS011;40050;47.324;18.792;2022-11-15T06:00:55;38.70;;;20.88;;
54143;SDS011;40050;47.324;18.792;2022-11-15T06:02:56;35.17;;;20.75;;
54143;SDS011;40050;47.324;18.792;2022-11-15T06:04:56;36.71;;;19.82;;
54143;SDS011;40050;47.324;18.792;2022-11-15T06:07:00;35.20;;;19.84;;
54143;SDS011;40050;47.324;18.792;2022-11-15T06:08:59;34.85;;;20.24;;
54143;SDS011;40050;47.324;18.792;2022-11-15T06:11:06;36.68;;;19.39;;
54143;SDS011;40050;47.324;18.792;2022-11-15T06:13:01;38.73;;;20.32;;
54143;SDS011;40050;47.324;18.792;2022-11-15T06:15:09;36.32;;;20.13;;
54143;SDS011;40050;47.324;18.792;2022-11-15T06:17:10;35.19;;;19.27;;
54143;SDS011;40050;47.324;18.792;2022-11-15T06:19:12;39.10;;;21.44;;
54143;SDS011;40050;47.324;18.792;2022-11-15T06:21:12;34.64;;;20.13;;
54143;SDS011;40050;47.324;18.792;2022-11-15T06:23:16;38.35;;;20.97;;
54143;SDS011;40050;47.324;18.792;2022-11-15T06:25:14;37.38;;;20.60;;
54143;SDS011;40050;47.324;18.792;2022-11-15T06:27:25;38.44;;;20.78;;
54143;SDS011;40050;47.324;18.792;2022-11-15T06:29:15;35.51;;;21.15;;
54143;SDS011;40050;47.324;18.792;2022-11-15T06:31:16;35.02;;;20.80;;
54143;SDS011;40050;47.324;18.792;2022-11-15T06:33:17;39.10;;;21.18;;
54143;SDS011;40050;47.324;18.792;2022-11-15T06:35:18;36.53;;;21.06;;
54143;SDS011;40050;47.324;18.792;2022-11-15T06:37:19;37.19;;;20.97;;
54143;SDS011;40050;47.324;18.792;2022-11-15T06:39:20;35.65;;;21.17;;
54143;SDS011;40050;47.324;18.792;2022-11-15T06:41:21;36.45;;;20.69;;
54143;SDS011;40050;47.324;18.792;2022-11-15T06:43:21;37.53;;;20.78;;
54143;SDS011;40050;47.324;18.792;2022-11-15T06:45:22;36.64;;;20.04;;
54143;SDS011;40050;47.324;18.792;2022-11-15T06:47:23;37.87;;;21.07;;
54143;SDS011;40050;47.324;18.792;2022-11-15T06:49:24;35.50;;;19.95;;
54143;SDS011;40050;47.324;18.792;2022-11-15T06:51:26;35.68;;;20.99;;
54143;SDS011;40050;47.324;18.792;2022-11-15T06:53:31;40.08;;;22.14;;
54143;SDS011;40050;47.324;18.792;2022-11-15T06:55:31;39.73;;;21.85;;
54143;SDS011;40050;47.324;18.792;2022-11-15T06:57:32;40.01;;;21.91;;
54143;SDS011;40050;47.324;18.792;2022-11-15T06:59:33;40.89;;;21.78;;
54143;SDS011;40050;47.324;18.792;2022-11-15T07:01:38;36.34;;;21.22;;
54143;SDS011;40050;47.324;18.792;2022-11-15T07:03:40;34.80;;;20.48;;
54143;SDS011;40050;47.324;18.792;2022-11-15T07:05:40;40.82;;;22.09;;
54143;SDS011;40050;47.324;18.792;2022-11-15T07:07:41;36.90;;;21.62;;
54143;SDS011;40050;47.324;18.792;2022-11-15T07:09:41;37.78;;;21.54;;
54143;SDS011;40050;47.324;18.792;2022-11-15T07:11:42;39.87;;;22.55;;
54143;SDS011;40050;47.324;18.792;2022-11-15T07:13:43;39.13;;;22.18;;
54143;SDS011;40050;47.324;18.792;2022-11-15T07:15:45;40.70;;;23.14;;
54143;SDS011;40050;47.324;18.792;2022-11-15T07:17:45;40.73;;;23.43;;
54143;SDS011;40050;47.324;18.792;2022-11-15T07:19:45;39.42;;;23.41;;
54143;SDS011;40050;47.324;18.792;2022-11-15T07:21:46;42.09;;;24.12;;
54143;SDS011;40050;47.324;18.792;2022-11-15T07:23:47;41.83;;;23.48;;
54143;SDS011;40050;47.324;18.792;2022-11-15T07:25:48;39.65;;;22.79;;
54143;SDS011;40050;47.324;18.792;2022-11-15T07:27:55;41.44;;;23.41;;
54143;SDS011;40050;47.324;18.792;2022-11-15T07:29:49;41.36;;;22.78;;
54143;SDS011;40050;47.324;18.792;2022-11-15T07:31:50;42.50;;;24.53;;
54143;SDS011;40050;47.324;18.792;2022-11-15T07:33:51;42.23;;;23.19;;
54143;SDS011;40050;47.324;18.792;2022-11-15T07:35:52;42.84;;;24.04;;
54143;SDS011;40050;47.324;18.792;2022-11-15T07:38:00;41.10;;;23.20;;
54143;SDS011;40050;47.324;18.792;2022-11-15T07:39:54;40.67;;;23.97;;
54143;SDS011;40050;47.324;18.792;2022-11-15T07:41:54;37.58;;;21.85;;
54143;SDS011;40050;47.324;18.792;2022-11-15T07:43:55;40.96;;;22.36;;
54143;SDS011;40050;47.324;18.792;2022-11-15T07:45:56;40.19;;;23.63;;
54143;SDS011;40050;47.324;18.792;2022-11-15T07:47:59;39.82;;;23.81;;
54143;SDS011;40050;47.324;18.792;2022-11-15T07:50:00;39.65;;;23.17;;
54143;SDS011;40050;47.324;18.792;2022-11-15T07:52:00;39.58;;;23.67;;
54143;SDS011;40050;47.324;18.792;2022-11-15T07:54:01;41.71;;;24.60;;
54143;SDS011;40050;47.324;18.792;2022-11-15T07:56:02;41.50;;;23.58;;
54143;SDS011;40050;47.324;18.792;2022-11-15T07:58:03;39.35;;;23.68;;
54143;SDS011;40050;47.324;18.792;2022-11-15T08:00:04;39.61;;;23.18;;
54143;SDS011;40050;47.324;18.792;2022-11-15T08:02:04;41.47;;;24.20;;
54143;SDS011;40050;47.324;18.792;2022-11-15T08:04:05;41.73;;;24.51;;
54143;SDS011;40050;47.324;18.792;2022-11-15T08:06:07;41.72;;;24.39;;
54143;SDS011;40050;47.324;18.792;2022-11-15T08:08:09;40.86;;;24.12;;
54143;SDS011;40050;47.324;18.792;2022-11-15T08:10:09;40.11;;;23.70;;
54143;SDS011;40050;47.324;18.792;2022-11-15T08:12:10;39.90;;;23.86;;
54143;SDS011;40050;47.324;18.792;2022-11-15T08:14:10;40.89;;;24.04;;
54143;SDS011;40050;47.324;18.792;2022-11-15T08:16:11;46.21;;;25.07;;
54143;SDS011;40050;47.324;18.792;2022-11-15T08:18:13;40.05;;;24.44;;
54143;SDS011;40050;47.324;18.792;2022-11-15T08:20:13;41.51;;;24.64;;
54143;SDS011;40050;47.324;18.792;2022-11-15T08:22:14;41.09;;;24.48;;
54143;SDS011;40050;47.324;18.792;2022-11-15T08:24:14;42.35;;;25.36;;
54143;SDS011;40050;47.324;18.792;2022-11-15T08:26:15;40.98;;;24.62;;
54143;SDS011;40050;47.324;18.792;2022-11-15T08:28:16;41.10;;;24.44;;
54143;SDS011;40050;47.324;18.792;2022-11-15T08:30:18;46.23;;;25.97;;
54143;SDS011;40050;47.324;18.792;2022-11-15T08:32:19;41.54;;;24.66;;
54143;SDS011;40050;47.324;18.792;2022-11-15T08:34:19;41.26;;;25.38;;
54143;SDS011;40050;47.324;18.792;2022-11-15T08:36:20;44.28;;;26.35;;
54143;SDS011;40050;47.324;18.792;2022-11-15T08:38:23;47.61;;;26.81;;
54143;SDS011;40050;47.324;18.792;2022-11-15T08:40:24;42.50;;;27.18;;
54143;SDS011;40050;47.324;18.792;2022-11-15T08:42:24;44.06;;;26.19;;
54143;SDS011;40050;47.324;18.792;2022-11-15T08:44:25;44.17;;;26.10;;
54143;SDS011;40050;47.324;18.792;2022-11-15T08:46:27;44.63;;;26.37;;
54143;SDS011;40050;47.324;18.792;2022-11-15T08:48:27;44.40;;;26.48;;
54143;SDS011;40050;47.324;18.792;2022-11-15T08:50:28;46.76;;;26.83;;
54143;SDS011;40050;47.324;18.792;2022-11-15T08:52:29;42.63;;;26.31;;
54143;SDS011;40050;47.324;18.792;2022-11-15T08:54:30;44.26;;;26.56;;
54143;SDS011;40050;47.324;18.792;2022-11-15T08:56:31;43.94;;;26.80;;
54143;SDS011;40050;47.324;18.792;2022-11-15T08:58:31;44.34;;;26.77;;
54143;SDS011;40050;47.324;18.792;2022-11-15T09:00:33;44.65;;;27.02;;
54143;SDS011;40050;47.324;18.792;2022-11-15T09:02:34;43.93;;;25.87;;
54143;SDS011;40050;47.324;18.792;2022-11-15T09:04:35;45.42;;;26.34;;
54143;SDS011;40050;47.324;18.792;2022-11-15T09:06:35;43.36;;;26.24;;
54143;SDS011;40050;47.324;18.792;2022-11-15T09:08:36;45.76;;;26.34;;
54143;SDS011;40050;47.324;18.792;2022-11-15T09:10:37;46.11;;;27.13;;
54143;SDS011;40050;47.324;18.792;2022-11-15T09:12:38;46.18;;;27.72;;
54143;SDS011;40050;47.324;18.792;2022-11-15T09:14:41;45.47;;;26.33;;
54143;SDS011;40050;47.324;18.792;2022-11-15T09:16:42;44.67;;;26.61;;
54143;SDS011;40050;47.324;18.792;2022-11-15T09:18:42;46.70;;;26.96;;
54143;SDS011;40050;47.324;18.792;2022-11-15T09:20:44;47.14;;;27.84;;
54143;SDS011;40050;47.324;18.792;2022-11-15T09:22:47;48.84;;;27.67;;
54143;SDS011;40050;47.324;18.792;2022-11-15T09:24:45;48.58;;;27.91;;
54143;SDS011;40050;47.324;18.792;2022-11-15T09:26:46;47.32;;;29.06;;
54143;SDS011;40050;47.324;18.792;2022-11-15T09:28:47;48.62;;;28.56;;
54143;SDS011;40050;47.324;18.792;2022-11-15T09:30:48;47.90;;;28.13;;
54143;SDS011;40050;47.324;18.792;2022-11-15T09:32:49;46.33;;;27.55;;
54143;SDS011;40050;47.324;18.792;2022-11-15T09:34:50;48.04;;;28.69;;
54143;SDS011;40050;47.324;18.792;2022-11-15T09:36:50;51.01;;;28.46;;
54143;SDS011;40050;47.324;18.792;2022-11-15T09:38:51;48.44;;;27.68;;
54143;SDS011;40050;47.324;18.792;2022-11-15T09:40:53;47.55;;;27.90;;
54143;SDS011;40050;47.324;18.792;2022-11-15T09:45:18;46.40;;;26.79;;
54143;SDS011;40050;47.324;18.792;2022-11-15T09:49:31;50.57;;;28.23;;
54143;SDS011;40050;47.324;18.792;2022-11-15T09:51:34;43.83;;;27.18;;
54143;SDS011;40050;47.324;18.792;2022-11-15T09:53:36;44.20;;;27.17;;
54143;SDS011;40050;47.324;18.792;2022-11-15T09:55:47;47.00;;;26.84;;
54143;SDS011;40050;47.324;18.792;2022-11-15T10:00:04;44.82;;;27.15;;
54143;SDS011;40050;47.324;18.792;2022-11-15T10:04:10;51.64;;;31.63;;
54143;SDS011;40050;47.324;18.792;2022-11-15T10:06:22;52.17;;;31.12;;
54143;SDS011;40050;47.324;18.792;2022-11-15T10:08:40;52.16;;;30.61;;
54143;SDS011;40050;47.324;18.792;2022-11-15T10:10:57;49.08;;;29.67;;
54143;SDS011;40050;47.324;18.792;2022-11-15T10:12:58;52.85;;;29.51;;
54143;SDS011;40050;47.324;18.792;2022-11-15T10:15:02;49.25;;;27.65;;
54143;SDS011;40050;47.324;18.792;2022-11-15T10:17:26;48.04;;;28.81;;
54143;SDS011;40050;47.324;18.792;2022-11-15T10:23:32;47.40;;;28.99;;
54143;SDS011;40050;47.324;18.792;2022-11-15T10:25:52;48.21;;;28.70;;
54143;SDS011;40050;47.324;18.792;2022-11-15T10:27:56;49.84;;;28.31;;
54143;SDS011;40050;47.324;18.792;2022-11-15T10:29:54;50.06;;;30.54;;
54143;SDS011;40050;47.324;18.792;2022-11-15T10:31:59;52.77;;;28.96;;
54143;SDS011;40050;47.324;18.792;2022-11-15T10:34:10;48.50;;;29.27;;
54143;SDS011;40050;47.324;18.792;2022-11-15T10:36:14;50.93;;;30.47;;
54143;SDS011;40050;47.324;18.792;2022-11-15T10:38:06;47.44;;;28.52;;
54143;SDS011;40050;47.324;18.792;2022-11-15T10:40:14;46.57;;;28.52;;
54143;SDS011;40050;47.324;18.792;2022-11-15T10:44:25;45.86;;;28.80;;
54143;SDS011;40050;47.324;18.792;2022-11-15T10:46:21;46.87;;;28.65;;
54143;SDS011;40050;47.324;18.792;2022-11-15T10:48:19;46.55;;;28.75;;
54143;SDS011;40050;47.324;18.792;2022-11-15T10:50:28;46.53;;;27.57;;
54143;SDS011;40050;47.324;18.792;2022-11-15T10:52:46;49.12;;;29.54;;
54143;SDS011;40050;47.324;18.792;2022-11-15T10:54:54;45.78;;;28.16;;
54143;SDS011;40050;47.324;18.792;2022-11-15T10:56:56;47.20;;;27.72;;
54143;SDS011;40050;47.324;18.792;2022-11-15T10:59:14;46.41;;;27.76;;
54143;SDS011;40050;47.324;18.792;2022-11-15T11:01:15;52.31;;;30.64;;
54143;SDS011;40050;47.324;18.792;2022-11-15T11:03:29;50.68;;;29.52;;
54143;SDS011;40050;47.324;18.792;2022-11-15T11:05:39;54.90;;;31.32;;
54143;SDS011;40050;47.324;18.792;2022-11-15T11:07:27;53.09;;;32.77;;
54143;SDS011;40050;47.324;18.792;2022-11-15T11:09:32;56.90;;;32.83;;
54143;SDS011;40050;47.324;18.792;2022-11-15T11:12:04;59.86;;;34.08;;
54143;SDS011;40050;47.324;18.792;2022-11-15T11:13:44;56.46;;;32.92;;
54143;SDS011;40050;47.324;18.792;2022-11-15T11:15:46;59.53;;;33.36;;
54143;SDS011;40050;47.324;18.792;2022-11-15T11:18:06;62.73;;;34.59;;
54143;SDS011;40050;47.324;18.792;2022-11-15T11:20:18;59.40;;;32.81;;
54143;SDS011;40050;47.324;18.792;2022-11-15T11:24:42;61.96;;;34.40;;
54143;SDS011;40050;47.324;18.792;2022-11-15T11:26:55;58.82;;;32.86;;
54143;SDS011;40050;47.324;18.792;2022-11-15T11:33:44;50.98;;;30.58;;
54143;SDS011;40050;47.324;18.792;2022-11-15T11:38:21;53.49;;;29.38;;
54143;SDS011;40050;47.324;18.792;2022-11-15T11:40:29;50.29;;;29.10;;
54143;SDS011;40050;47.324;18.792;2022-11-15T11:44:53;51.95;;;29.02;;
54143;SDS011;40050;47.324;18.792;2022-11-15T11:47:15;52.19;;;28.25;;
54143;SDS011;40050;47.324;18.792;2022-11-15T11:49:31;46.68;;;27.59;;
54143;SDS011;40050;47.324;18.792;2022-11-15T11:51:18;50.87;;;29.60;;
54143;SDS011;40050;47.324;18.792;2022-11-15T11:53:25;47.50;;;27.56;;
54143;SDS011;40050;47.324;18.792;2022-11-15T11:55:37;45.58;;;27.96;;
54143;SDS011;40050;47.324;18.792;2022-11-15T11:57:40;45.77;;;26.82;;
54143;SDS011;40050;47.324;18.792;2022-11-15T12:00:17;46.64;;;26.63;;
54143;SDS011;40050;47.324;18.792;2022-11-15T12:01:57;45.25;;;27.12;;
54143;SDS011;40050;47.324;18.792;2022-11-15T12:04:13;43.50;;;25.59;;
54143;SDS011;40050;47.324;18.792;2022-11-15T12:06:21;44.59;;;26.80;;
54143;SDS011;40050;47.324;18.792;2022-11-15T12:08:26;41.97;;;25.06;;
54143;SDS011;40050;47.324;18.792;2022-11-15T12:10:40;40.36;;;23.88;;
54143;SDS011;40050;47.324;18.792;2022-11-15T12:13:04;43.25;;;25.68;;
54143;SDS011;40050;47.324;18.792;2022-11-15T12:15:25;39.28;;;23.97;;
54143;SDS011;40050;47.324;18.792;2022-11-15T12:17:26;39.25;;;23.35;;
54143;SDS011;40050;47.324;18.792;2022-11-15T12:19:28;39.12;;;22.67;;
54143;SDS011;40050;47.324;18.792;2022-11-15T12:23:47;37.43;;;22.67;;
54143;SDS011;40050;47.324;18.792;2022-11-15T12:26:11;36.06;;;22.12;;
54143;SDS011;40050;47.324;18.792;2022-11-15T12:28:40;38.18;;;23.28;;
54143;SDS011;40050;47.324;18.792;2022-11-15T12:30:21;38.55;;;24.83;;
54143;SDS011;40050;47.324;18.792;2022-11-15T12:32:29;35.82;;;22.58;;
54143;SDS011;40050;47.324;18.792;2022-11-15T12:34:45;35.98;;;22.67;;
54143;SDS011;40050;47.324;18.792;2022-11-15T12:36:38;38.58;;;23.42;;
54143;SDS011;40050;47.324;18.792;2022-11-15T12:38:57;42.98;;;24.35;;
54143;SDS011;40050;47.324;18.792;2022-11-15T12:41:13;42.53;;;25.41;;